TimeCST,TemperatureF,Dew PointF,Humidity,Sea Level PressureIn,VisibilityMPH,Wind Direction,Wind SpeedMPH,Gust SpeedMPH,PrecipitationIn,Events,Conditions,WindDirDegrees,DateUTC
12:58 AM,43.0,41.0,93,30.35,6.0,Calm,Calm,-,N/A,,Clear,0,2012-11-29 06:58:00
1:58 AM,36.0,34.0,93,30.36,-9999.0,Calm,Calm,-,N/A,,Clear,0,2012-11-29 07:58:00
2:13 AM,35.6,33.8,93,30.36,-9999.0,Calm,Calm,-,N/A,,Partly Cloudy,0,2012-11-29 08:13:00
2:22 AM,35.6,33.8,93,30.36,-9999.0,Calm,Calm,-,N/A,,Mostly Cloudy,0,2012-11-29 08:22:00
2:58 AM,35.1,33.1,92,30.36,-9999.0,Calm,Calm,-,N/A,,Overcast,0,2012-11-29 08:58:00
3:45 AM,33.8,32.0,93,30.36,-9999.0,Calm,Calm,-,N/A,,Scattered Clouds,0,2012-11-29 09:45:00
3:58 AM,34.0,33.1,96,30.35,-9999.0,Calm,Calm,-,N/A,,Partly Cloudy,0,2012-11-29 09:58:00
4:58 AM,34.0,32.0,92,30.36,-9999.0,Calm,Calm,-,N/A,,Clear,0,2012-11-29 10:58:00
5:35 AM,33.8,32.0,93,30.36,-9999.0,Calm,Calm,-,N/A,,Mostly Cloudy,0,2012-11-29 11:35:00
5:58 AM,37.9,36.0,93,30.37,-9999.0,North,3.5,-,N/A,,Overcast,360,2012-11-29 11:58:00
6:58 AM,41.0,39.0,93,30.38,-9999.0,NE,3.5,-,N/A,,Overcast,40,2012-11-29 12:58:00
7:58 AM,43.0,41.0,93,30.41,-9999.0,ENE,3.5,-,N/A,,Overcast,70,2012-11-29 13:58:00
8:58 AM,46.9,44.1,90,30.42,-9999.0,NE,4.6,-,N/A,,Overcast,50,2012-11-29 14:58:00
9:58 AM,50.0,45.0,83,30.43,-9999.0,East,5.8,-,N/A,,Overcast,80,2012-11-29 15:58:00
10:47 AM,53.6,44.6,72,30.41,10.0,East,8.1,-,N/A,,Scattered Clouds,80,2012-11-29 16:47:00
10:58 AM,55.0,44.1,67,30.40,10.0,Variable,5.8,-,N/A,,Scattered Clouds,0,2012-11-29 16:58:00
11:58 AM,57.9,45.0,62,30.37,10.0,Variable,3.5,-,N/A,,Scattered Clouds,0,2012-11-29 17:58:00
12:45 PM,60.8,46.4,59,30.35,10.0,NNE,3.5,-,N/A,,Mostly Cloudy,20,2012-11-29 18:45:00
12:58 PM,60.1,46.0,60,30.35,10.0,Variable,3.5,-,N/A,,Mostly Cloudy,0,2012-11-29 18:58:00
1:58 PM,62.1,46.9,58,30.32,10.0,North,3.5,-,N/A,,Mostly Cloudy,360,2012-11-29 19:58:00
2:05 PM,60.8,46.4,59,30.31,10.0,North,3.5,-,N/A,,Scattered Clouds,10,2012-11-29 20:05:00
2:28 PM,62.6,46.4,55,30.31,10.0,ENE,8.1,-,N/A,,Mostly Cloudy,60,2012-11-29 20:28:00
2:37 PM,60.8,46.4,59,30.31,10.0,ENE,6.9,-,N/A,,Scattered Clouds,60,2012-11-29 20:37:00
2:58 PM,61.0,46.9,60,30.30,10.0,NE,4.6,-,N/A,,Clear,50,2012-11-29 20:58:00
3:58 PM,60.1,46.9,62,30.31,10.0,Calm,Calm,-,N/A,,Scattered Clouds,0,2012-11-29 21:58:00
4:58 PM,53.1,48.0,83,30.32,10.0,Calm,Calm,-,N/A,,Unknown,0,2012-11-29 22:58:00
5:58 PM,50.0,46.0,86,30.32,10.0,NE,5.8,-,N/A,,Partly Cloudy,50,2012-11-29 23:58:00
6:58 PM,53.1,48.0,83,30.32,10.0,NE,3.5,-,N/A,,Scattered Clouds,40,2012-11-30 00:58:00
7:58 PM,55.0,48.0,77,30.33,10.0,ENE,4.6,-,N/A,,Mostly Cloudy,70,2012-11-30 01:58:00
8:58 PM,55.0,48.0,77,30.34,10.0,ENE,4.6,-,N/A,,Overcast,60,2012-11-30 02:58:00
9:58 PM,54.0,48.0,80,30.34,10.0,ENE,3.5,-,N/A,,Overcast,60,2012-11-30 03:58:00
10:58 PM,50.0,46.0,86,30.31,10.0,Calm,Calm,-,N/A,,Scattered Clouds,0,2012-11-30 04:58:00
11:58 PM,48.9,46.0,90,30.30,10.0,North,3.5,-,N/A,,Partly Cloudy,10,2012-11-30 05:58:00